createdAt,value
2023-01-29T00:00:21.622Z,85.35
2023-01-29T00:00:54.287Z,85.25
2023-01-29T00:01:26.951Z,85.25
2023-01-29T00:01:59.693Z,85.14
2023-01-29T00:02:32.354Z,85.14
2023-01-29T00:03:05.101Z,85.03
2023-01-29T00:03:37.747Z,85.03
2023-01-29T00:04:10.424Z,84.93
2023-01-29T00:04:43.104Z,85.03
2023-01-29T00:05:28.463Z,85.25
2023-01-29T00:05:47.871Z,85.46
2023-01-29T00:06:14.049Z,85.66
2023-01-29T00:06:46.744Z,85.88
2023-01-29T00:07:19.568Z,85.98
2023-01-29T00:07:52.230Z,86.08
2023-01-29T00:08:24.900Z,86.19
2023-01-29T00:08:57.572Z,86.19
2023-01-29T00:09:30.247Z,86.19
2023-01-29T00:10:02.923Z,86.40
2023-01-29T00:10:35.593Z,86.51
2023-01-29T00:11:06.688Z,86.40
2023-01-29T00:11:39.355Z,85.98
2023-01-29T00:12:12.045Z,85.77
2023-01-29T00:12:44.710Z,85.66
2023-01-29T00:13:17.380Z,85.77
2023-01-29T00:13:51.076Z,85.88
2023-01-29T00:14:17.256Z,85.88
2023-01-29T00:14:49.923Z,85.88
2023-01-29T00:15:22.598Z,85.77
2023-01-29T00:15:55.275Z,85.77
2023-01-29T00:16:27.940Z,85.88
2023-01-29T00:17:00.670Z,85.88
2023-01-29T00:17:31.714Z,85.88
2023-01-29T00:18:04.407Z,85.88
2023-01-29T00:18:37.056Z,85.88
2023-01-29T00:19:09.720Z,85.98
2023-01-29T00:19:42.388Z,86.08
2023-01-29T00:20:15.463Z,85.98
2023-01-29T00:20:41.915Z,85.88
2023-01-29T00:21:14.606Z,85.88
2023-01-29T00:21:47.280Z,85.98
2023-01-29T00:22:19.949Z,86.19
2023-01-29T00:22:52.623Z,86.29
2023-01-29T00:23:25.332Z,86.40
2023-01-29T00:23:58.080Z,86.40
2023-01-29T00:24:30.794Z,86.29
2023-01-29T00:25:03.433Z,86.29
2023-01-29T00:25:36.108Z,86.19
2023-01-29T00:26:08.781Z,86.29
2023-01-29T00:26:41.465Z,86.40
2023-01-29T00:27:14.131Z,86.51
2023-01-29T00:27:46.795Z,86.40
2023-01-29T00:28:19.461Z,86.19
2023-01-29T00:28:52.132Z,86.08
2023-01-29T00:29:24.804Z,85.88
2023-01-29T00:29:57.483Z,85.88
2023-01-29T00:30:28.578Z,85.98
2023-01-29T00:31:01.346Z,86.08
2023-01-29T00:31:34.107Z,86.19
2023-01-29T00:32:06.914Z,86.40
2023-01-29T00:32:39.634Z,86.51
2023-01-29T00:33:12.353Z,86.71
2023-01-29T00:33:44.989Z,86.40
2023-01-29T00:34:17.660Z,86.08
2023-01-29T00:34:50.322Z,86.08
2023-01-29T00:35:23.000Z,86.29
2023-01-29T00:35:55.657Z,86.29
2023-01-29T00:36:28.336Z,86.40
2023-01-29T00:37:01.004Z,86.51
2023-01-29T00:37:33.672Z,86.51
2023-01-29T00:38:06.345Z,86.82
2023-01-29T00:38:39.014Z,86.61
2023-01-29T00:39:11.678Z,86.51
2023-01-29T00:39:48.090Z,86.51
2023-01-29T00:40:15.125Z,86.61
2023-01-29T00:40:41.663Z,86.71
2023-01-29T00:41:14.338Z,86.71
2023-01-29T00:41:47.073Z,86.40
2023-01-29T00:42:19.726Z,86.29
2023-01-29T00:42:52.403Z,86.29
2023-01-29T00:43:25.088Z,86.19
2023-01-29T00:43:57.763Z,86.29
2023-01-29T00:44:30.418Z,86.19
2023-01-29T00:45:03.095Z,86.08
2023-01-29T00:45:35.766Z,86.08
2023-01-29T00:46:08.445Z,85.98
2023-01-29T00:46:41.224Z,85.98
2023-01-29T00:47:12.239Z,85.98
2023-01-29T00:47:44.911Z,85.98
2023-01-29T00:48:17.604Z,86.19
2023-01-29T00:48:50.339Z,86.40
2023-01-29T00:49:23.012Z,86.51
2023-01-29T00:49:55.697Z,86.40
2023-01-29T00:50:28.379Z,86.40
2023-01-29T00:51:01.049Z,86.19
2023-01-29T00:51:33.728Z,85.98
2023-01-29T00:52:06.441Z,86.19
2023-01-29T00:52:39.106Z,86.29
2023-01-29T00:53:11.781Z,86.29
2023-01-29T00:53:44.482Z,86.19
2023-01-29T00:54:17.140Z,86.19
2023-01-29T00:54:49.809Z,86.29
2023-01-29T00:55:22.479Z,86.40
2023-01-29T00:55:55.154Z,86.29
2023-01-29T00:56:27.828Z,86.29
2023-01-29T00:57:00.522Z,86.19
2023-01-29T00:57:33.196Z,86.08
2023-01-29T00:58:05.874Z,86.08
2023-01-29T00:58:38.545Z,86.19
2023-01-29T00:59:11.226Z,86.19
2023-01-29T00:59:43.895Z,86.29
2023-01-29T01:00:16.992Z,86.19
2023-01-29T01:00:43.433Z,86.29
2023-01-29T01:01:16.225Z,86.51
2023-01-29T01:01:48.983Z,86.71
2023-01-29T01:02:21.748Z,86.61
2023-01-29T01:02:54.465Z,86.71
2023-01-29T01:03:27.159Z,86.71
2023-01-29T01:03:59.898Z,86.71
2023-01-29T01:04:34.957Z,86.92
2023-01-29T01:05:01.199Z,87.03
2023-01-29T01:05:33.879Z,87.13
2023-01-29T01:06:06.565Z,87.13
2023-01-29T01:06:39.235Z,87.13
2023-01-29T01:07:47.067Z,87.34
2023-01-29T01:08:19.739Z,87.34
2023-01-29T01:08:52.412Z,87.34
2023-01-29T01:09:25.083Z,87.34
2023-01-29T01:09:57.765Z,87.45
2023-01-29T01:10:30.465Z,87.45
2023-01-29T01:11:03.123Z,87.55
2023-01-29T01:11:35.803Z,87.66
2023-01-29T01:12:08.498Z,87.76
2023-01-29T01:12:41.171Z,87.87
2023-01-29T01:13:13.834Z,87.87
2023-01-29T01:13:46.505Z,87.76
2023-01-29T01:14:19.176Z,87.76
2023-01-29T01:14:51.861Z,87.76
2023-01-29T01:15:24.540Z,87.87
2023-01-29T01:15:57.226Z,87.76
2023-01-29T01:16:29.980Z,87.66
2023-01-29T01:17:02.672Z,87.66
2023-01-29T01:17:35.343Z,87.55
2023-01-29T01:18:08.043Z,87.55
2023-01-29T01:18:40.704Z,87.55
2023-01-29T01:19:13.362Z,87.55
2023-01-29T01:19:46.035Z,87.34
2023-01-29T01:20:19.096Z,87.34
2023-01-29T01:20:45.356Z,87.45
2023-01-29T01:21:18.040Z,87.34
2023-01-29T01:21:50.713Z,87.34
2023-01-29T01:22:23.374Z,87.66
2023-01-29T01:22:56.064Z,87.66
2023-01-29T01:23:28.739Z,87.66
2023-01-29T01:24:01.414Z,87.76
2023-01-29T01:24:34.079Z,87.72
2023-01-29T01:25:06.749Z,87.66
2023-01-29T01:25:39.420Z,87.55
2023-01-29T01:26:12.090Z,87.45
2023-01-29T01:26:44.748Z,87.55
2023-01-29T01:27:17.438Z,87.45
2023-01-29T01:27:50.109Z,87.45
2023-01-29T01:28:22.777Z,87.55
2023-01-29T01:28:55.445Z,87.55
2023-01-29T01:29:28.109Z,87.55
2023-01-29T01:30:00.790Z,87.66
2023-01-29T01:30:33.457Z,87.66
2023-01-29T01:31:06.230Z,87.55
2023-01-29T01:31:38.999Z,87.76
2023-01-29T01:32:10.041Z,87.87
2023-01-29T01:32:42.708Z,87.87
2023-01-29T01:33:15.384Z,87.87
2023-01-29T01:33:48.080Z,87.87
2023-01-29T01:34:20.745Z,87.87
2023-01-29T01:34:53.408Z,87.87
2023-01-29T01:35:26.085Z,87.97
2023-01-29T01:35:58.751Z,88.07
2023-01-29T01:36:31.426Z,88.18
2023-01-29T01:37:04.109Z,88.18
2023-01-29T01:37:37.411Z,88.29
2023-01-29T01:38:03.569Z,88.18
2023-01-29T01:38:36.241Z,88.29
2023-01-29T01:39:08.909Z,88.29
2023-01-29T01:39:41.582Z,88.39
2023-01-29T01:40:14.512Z,88.49
2023-01-29T01:40:40.922Z,88.49
2023-01-29T01:41:13.592Z,88.49
2023-01-29T01:41:46.290Z,88.60
2023-01-29T01:42:18.966Z,88.60
2023-01-29T01:42:51.634Z,88.71
2023-01-29T01:43:24.318Z,88.71
2023-01-29T01:43:56.989Z,88.71
2023-01-29T01:44:28.082Z,88.49
2023-01-29T01:45:00.752Z,88.49
2023-01-29T01:45:33.501Z,88.49
2023-01-29T01:46:06.243Z,88.60
2023-01-29T01:46:38.924Z,88.71
2023-01-29T01:47:11.630Z,88.81
2023-01-29T01:47:44.291Z,88.81
2023-01-29T01:48:16.963Z,88.81
2023-01-29T01:48:49.630Z,88.92
2023-01-29T01:49:22.341Z,89.02
2023-01-29T01:49:55.006Z,89.02
2023-01-29T01:50:27.692Z,89.12
2023-01-29T01:51:00.358Z,89.23
2023-01-29T01:51:33.028Z,89.02
2023-01-29T01:52:05.724Z,89.02
2023-01-29T01:52:38.399Z,89.02
2023-01-29T01:53:07.173Z,88.92
2023-01-29T01:53:39.855Z,88.77
2023-01-29T01:54:12.529Z,88.87
2023-01-29T01:54:45.219Z,88.87
2023-01-29T01:55:17.892Z,88.98
2023-01-29T01:55:50.577Z,88.98
2023-01-29T01:56:23.245Z,88.98
2023-01-29T01:56:55.941Z,88.98
2023-01-29T01:57:28.609Z,88.98
2023-01-29T01:58:01.278Z,88.98
2023-01-29T01:58:33.941Z,88.87
2023-01-29T01:59:06.622Z,88.87
2023-01-29T01:59:39.286Z,88.77
2023-01-29T02:00:11.990Z,88.87
2023-01-29T02:00:44.693Z,88.87
2023-01-29T02:01:17.390Z,88.67
2023-01-29T02:01:50.211Z,88.67
2023-01-29T02:02:22.944Z,88.56
2023-01-29T02:02:55.643Z,88.67
2023-01-29T02:03:28.318Z,88.67
2023-01-29T02:04:00.988Z,88.77
2023-01-29T02:04:33.659Z,88.77
2023-01-29T02:05:06.313Z,88.87
2023-01-29T02:05:38.977Z,88.87
2023-01-29T02:06:11.638Z,88.87
2023-01-29T02:06:44.345Z,88.87
2023-01-29T02:07:17.002Z,88.87
2023-01-29T02:07:49.679Z,88.87
2023-01-29T02:08:22.409Z,88.98
2023-01-29T02:08:55.085Z,88.98
2023-01-29T02:09:27.741Z,88.98
2023-01-29T02:10:00.410Z,88.87
2023-01-29T02:10:33.082Z,88.67
2023-01-29T02:11:05.743Z,88.77
2023-01-29T02:11:38.415Z,88.77
2023-01-29T02:12:11.104Z,88.67
2023-01-29T02:12:43.766Z,88.67
2023-01-29T02:13:16.441Z,88.67
2023-01-29T02:13:49.114Z,88.67
2023-01-29T02:14:21.808Z,88.67
2023-01-29T02:14:52.896Z,88.67
2023-01-29T02:15:25.588Z,88.56
2023-01-29T02:15:58.251Z,88.67
2023-01-29T02:16:30.933Z,88.67
2023-01-29T02:17:03.697Z,88.87
2023-01-29T02:17:36.373Z,88.87
2023-01-29T02:18:09.058Z,88.87
2023-01-29T02:18:41.733Z,88.87
2023-01-29T02:19:14.393Z,88.98
2023-01-29T02:19:47.167Z,89.19
2023-01-29T02:20:19.818Z,89.29
2023-01-29T02:20:52.500Z,89.09
2023-01-29T02:21:25.252Z,88.87
2023-01-29T02:21:57.928Z,88.87
2023-01-29T02:22:30.618Z,88.87
2023-01-29T02:23:03.823Z,88.87
2023-01-29T02:23:30.049Z,88.87
2023-01-29T02:24:02.819Z,88.87
2023-01-29T02:24:35.538Z,88.98
2023-01-29T02:25:08.207Z,89.09
2023-01-29T02:25:40.874Z,89.09
2023-01-29T02:26:13.544Z,89.09
2023-01-29T02:26:46.235Z,89.09
2023-01-29T02:27:18.924Z,89.09
2023-01-29T02:27:51.588Z,89.09
2023-01-29T02:28:24.264Z,88.87
2023-01-29T02:28:56.937Z,88.67
2023-01-29T02:29:29.624Z,88.67
2023-01-29T02:30:02.300Z,88.67
2023-01-29T02:30:34.975Z,88.77
2023-01-29T02:31:07.707Z,88.98
2023-01-29T02:31:40.458Z,88.98
2023-01-29T02:32:13.127Z,88.87
2023-01-29T02:32:45.799Z,88.77
2023-01-29T02:33:18.463Z,88.77
2023-01-29T02:33:51.145Z,88.87
2023-01-29T02:34:23.799Z,88.77
2023-01-29T02:34:56.497Z,88.87
2023-01-29T02:35:29.150Z,88.98
2023-01-29T02:36:01.814Z,88.98
2023-01-29T02:36:34.481Z,88.98
2023-01-29T02:37:07.166Z,88.98
2023-01-29T02:37:39.942Z,89.09
2023-01-29T02:38:12.592Z,89.19
2023-01-29T02:38:45.264Z,89.19
2023-01-29T02:39:17.941Z,89.19
2023-01-29T02:39:50.592Z,89.19
2023-01-29T02:40:23.251Z,89.09
2023-01-29T02:40:54.378Z,88.87
2023-01-29T02:41:27.020Z,88.87
2023-01-29T02:41:59.706Z,88.98
2023-01-29T02:42:32.376Z,89.09
2023-01-29T02:43:05.038Z,89.19
2023-01-29T02:43:37.713Z,89.29
2023-01-29T02:44:10.380Z,89.19
2023-01-29T02:44:43.040Z,89.19
2023-01-29T02:45:15.712Z,89.29
2023-01-29T02:45:48.428Z,89.19
2023-01-29T02:46:21.120Z,89.09
2023-01-29T02:46:53.799Z,88.87
2023-01-29T02:47:26.470Z,88.87
2023-01-29T02:47:59.157Z,88.87
2023-01-29T02:48:31.826Z,88.98
2023-01-29T02:49:04.495Z,88.98
2023-01-29T02:49:37.161Z,88.87
2023-01-29T02:50:09.860Z,88.87
2023-01-29T02:50:42.513Z,88.98
2023-01-29T02:51:15.181Z,88.98
2023-01-29T02:51:47.873Z,88.98
2023-01-29T02:52:20.546Z,89.09
2023-01-29T02:52:53.213Z,89.09
2023-01-29T02:53:25.899Z,89.19
2023-01-29T02:53:58.586Z,89.19
2023-01-29T02:54:31.240Z,89.29
2023-01-29T02:55:03.929Z,89.29
2023-01-29T02:55:36.604Z,89.29
2023-01-29T02:56:09.261Z,89.29
2023-01-29T02:56:41.928Z,89.19
2023-01-29T02:57:14.612Z,89.19
2023-01-29T02:57:47.272Z,89.04
2023-01-29T02:58:19.946Z,89.29
2023-01-29T02:58:52.615Z,89.29
2023-01-29T02:59:25.297Z,89.29
2023-01-29T02:59:57.963Z,89.25
2023-01-29T03:00:30.638Z,89.36
2023-01-29T03:01:03.318Z,89.40
2023-01-29T03:01:35.972Z,89.40
2023-01-29T03:02:08.695Z,89.40
2023-01-29T03:02:41.351Z,89.50
2023-01-29T03:03:14.022Z,89.47
2023-01-29T03:03:46.703Z,89.57
2023-01-29T03:04:19.369Z,89.57
2023-01-29T03:04:52.047Z,89.67
2023-01-29T03:05:24.727Z,89.67
2023-01-29T03:05:57.367Z,89.57
2023-01-29T03:06:30.045Z,89.57
2023-01-29T03:07:02.742Z,89.47
2023-01-29T03:07:35.396Z,89.47
2023-01-29T03:08:08.069Z,89.57
2023-01-29T03:08:40.743Z,89.57
2023-01-29T03:09:13.416Z,89.57
2023-01-29T03:09:46.089Z,89.67
2023-01-29T03:10:18.913Z,89.78
2023-01-29T03:10:51.621Z,89.78
2023-01-29T03:11:24.288Z,89.67
2023-01-29T03:11:56.974Z,89.57
2023-01-29T03:12:29.644Z,89.67
2023-01-29T03:13:02.314Z,89.78
2023-01-29T03:13:35.006Z,89.78
2023-01-29T03:14:07.731Z,89.88
2023-01-29T03:14:38.822Z,89.88
2023-01-29T03:15:11.508Z,89.78
2023-01-29T03:15:44.174Z,89.78
2023-01-29T03:16:16.869Z,89.78
2023-01-29T03:16:49.563Z,89.67
2023-01-29T03:17:22.280Z,89.67
2023-01-29T03:17:54.943Z,89.78
2023-01-29T03:18:27.636Z,89.88
2023-01-29T03:19:00.296Z,89.88
2023-01-29T03:19:33.022Z,89.98
2023-01-29T03:20:05.706Z,90.09
2023-01-29T03:20:38.411Z,90.20
2023-01-29T03:21:11.059Z,90.20
2023-01-29T03:21:43.751Z,90.20
2023-01-29T03:22:16.440Z,90.20
2023-01-29T03:22:49.137Z,90.20
2023-01-29T03:23:21.823Z,90.09
2023-01-29T03:23:54.555Z,89.98
2023-01-29T03:24:27.319Z,90.09
2023-01-29T03:24:59.963Z,90.20
2023-01-29T03:25:32.641Z,90.30
2023-01-29T03:26:05.319Z,90.41
2023-01-29T03:26:37.996Z,90.41
2023-01-29T03:27:10.701Z,90.41
2023-01-29T03:27:43.366Z,90.30
2023-01-29T03:28:16.035Z,90.30
2023-01-29T03:28:48.731Z,90.30
2023-01-29T03:29:21.380Z,90.41
2023-01-29T03:29:54.055Z,90.41
2023-01-29T03:30:26.738Z,90.51
2023-01-29T03:30:59.509Z,90.51
2023-01-29T03:31:32.299Z,90.51
2023-01-29T03:32:05.167Z,90.61
2023-01-29T03:32:37.798Z,90.61
2023-01-29T03:33:10.472Z,90.51
2023-01-29T03:33:43.159Z,90.51
2023-01-29T03:34:15.818Z,90.51
2023-01-29T03:34:48.495Z,90.51
2023-01-29T03:35:21.155Z,90.51
2023-01-29T03:35:53.856Z,90.51
2023-01-29T03:36:26.490Z,90.41
2023-01-29T03:36:59.192Z,90.41
2023-01-29T03:37:31.857Z,90.51
2023-01-29T03:38:04.526Z,90.51
2023-01-29T03:38:37.200Z,90.61
2023-01-29T03:39:09.866Z,90.51
2023-01-29T03:39:42.541Z,90.41
2023-01-29T03:40:15.687Z,90.41
2023-01-29T03:40:41.953Z,90.41
2023-01-29T03:41:14.626Z,90.51
2023-01-29T03:41:47.311Z,90.72
2023-01-29T03:42:19.996Z,90.72
2023-01-29T03:42:52.655Z,90.83
2023-01-29T03:43:25.359Z,90.72
2023-01-29T03:43:58.004Z,90.83
2023-01-29T03:44:30.679Z,90.83
2023-01-29T03:45:03.351Z,90.83
2023-01-29T03:45:36.090Z,90.72
2023-01-29T03:46:08.818Z,90.72
2023-01-29T03:46:41.530Z,90.83
2023-01-29T03:47:14.194Z,90.72
2023-01-29T03:47:46.868Z,90.83
2023-01-29T03:48:19.541Z,90.93
2023-01-29T03:48:52.212Z,91.03
2023-01-29T03:49:24.875Z,91.03
2023-01-29T03:49:57.545Z,91.14
2023-01-29T03:50:30.216Z,91.24
2023-01-29T03:51:02.884Z,91.24
2023-01-29T03:51:35.571Z,91.35
2023-01-29T03:52:08.237Z,91.35
2023-01-29T03:52:40.909Z,91.46
2023-01-29T03:53:13.586Z,91.46
2023-01-29T03:53:46.240Z,91.24
2023-01-29T03:54:18.917Z,91.35
2023-01-29T03:54:51.580Z,91.35
2023-01-29T03:55:24.238Z,91.24
2023-01-29T03:55:56.912Z,91.24
2023-01-29T03:56:29.600Z,91.35
2023-01-29T03:57:02.277Z,91.46
2023-01-29T03:57:34.956Z,91.56
2023-01-29T03:58:07.624Z,91.66
2023-01-29T03:58:40.308Z,91.66
2023-01-29T03:59:12.962Z,91.66
2023-01-29T03:59:45.632Z,91.77
2023-01-29T04:00:18.545Z,91.87
2023-01-29T04:00:44.906Z,91.98
2023-01-29T04:01:17.600Z,92.08
2023-01-29T04:01:50.289Z,92.19
2023-01-29T04:02:22.955Z,92.19
2023-01-29T04:02:55.662Z,92.29
2023-01-29T04:03:28.317Z,92.29
2023-01-29T04:04:01.016Z,92.40
2023-01-29T04:04:33.660Z,92.50
2023-01-29T04:05:06.325Z,92.61
2023-01-29T04:05:39.007Z,92.71
2023-01-29T04:06:11.681Z,92.82
2023-01-29T04:06:44.364Z,92.82
2023-01-29T04:07:17.045Z,92.82
2023-01-29T04:07:49.707Z,92.92
2023-01-29T04:08:22.377Z,92.82
2023-01-29T04:08:55.055Z,92.92
2023-01-29T04:09:27.744Z,92.92
2023-01-29T04:10:00.405Z,93.02
2023-01-29T04:10:33.080Z,93.13
2023-01-29T04:11:05.761Z,93.13
2023-01-29T04:11:38.423Z,93.34
2023-01-29T04:12:11.105Z,93.34
2023-01-29T04:12:43.778Z,93.44
2023-01-29T04:13:16.437Z,93.55
2023-01-29T04:13:49.107Z,93.65
2023-01-29T04:14:21.775Z,93.65
2023-01-29T04:14:54.449Z,93.65
2023-01-29T04:15:27.111Z,93.76
2023-01-29T04:15:59.783Z,93.76
2023-01-29T04:16:32.534Z,93.76
2023-01-29T04:17:05.217Z,93.87
2023-01-29T04:17:37.881Z,93.97
2023-01-29T04:18:10.559Z,93.97
2023-01-29T04:18:43.217Z,94.07
2023-01-29T04:19:15.895Z,94.18
2023-01-29T04:19:48.557Z,94.18
2023-01-29T04:20:21.244Z,94.28
2023-01-29T04:20:53.912Z,94.38
2023-01-29T04:21:26.579Z,94.49
2023-01-29T04:21:59.274Z,94.49
2023-01-29T04:22:31.954Z,94.60
2023-01-29T04:23:04.618Z,94.70
2023-01-29T04:23:37.293Z,94.81
2023-01-29T04:24:10.015Z,94.91
2023-01-29T04:24:42.670Z,94.91
2023-01-29T04:25:15.352Z,94.91
2023-01-29T04:25:48.037Z,95.01
2023-01-29T04:26:19.111Z,95.12
2023-01-29T04:26:51.803Z,95.23
2023-01-29T04:27:24.461Z,95.23
2023-01-29T04:27:57.146Z,95.23
2023-01-29T04:28:29.808Z,95.23
2023-01-29T04:29:02.495Z,95.23
2023-01-29T04:29:35.163Z,95.23
2023-01-29T04:30:07.828Z,95.23
2023-01-29T04:30:40.515Z,95.23
2023-01-29T04:31:13.419Z,95.33
2023-01-29T04:31:39.823Z,95.33
2023-01-29T04:32:12.560Z,95.33
2023-01-29T04:32:45.213Z,95.43
2023-01-29T04:33:17.887Z,95.43
2023-01-29T04:33:50.558Z,95.50
2023-01-29T04:34:23.232Z,95.64
2023-01-29T04:34:55.913Z,95.70
2023-01-29T04:35:28.591Z,95.81
2023-01-29T04:36:01.245Z,95.81
2023-01-29T04:36:33.922Z,95.81
2023-01-29T04:37:06.608Z,95.81
2023-01-29T04:37:39.277Z,95.86
2023-01-29T04:38:11.950Z,95.92
2023-01-29T04:38:44.667Z,95.92
2023-01-29T04:39:17.320Z,96.02
2023-01-29T04:39:49.988Z,96.27
2023-01-29T04:40:22.673Z,96.44
2023-01-29T04:40:55.359Z,96.65
2023-01-29T04:41:28.008Z,96.69
2023-01-29T04:42:00.702Z,96.75
2023-01-29T04:42:33.376Z,96.80
2023-01-29T04:43:06.040Z,96.86
2023-01-29T04:43:38.711Z,97.06
2023-01-29T04:44:11.407Z,97.06
2023-01-29T04:44:44.054Z,97.06
2023-01-29T04:45:16.740Z,97.22
2023-01-29T04:45:49.403Z,97.38
2023-01-29T04:46:22.060Z,97.53
2023-01-29T04:46:54.755Z,97.49
2023-01-29T04:47:27.466Z,97.53
2023-01-29T04:48:00.182Z,97.49
2023-01-29T04:48:32.854Z,97.53
2023-01-29T04:49:05.519Z,97.49
2023-01-29T04:49:38.183Z,97.53
2023-01-29T04:50:10.847Z,97.63
2023-01-29T04:50:43.519Z,97.74
2023-01-29T04:51:16.206Z,97.74
2023-01-29T04:51:48.907Z,97.85
2023-01-29T04:52:21.563Z,97.80
2023-01-29T04:52:54.242Z,97.80
2023-01-29T04:53:26.913Z,97.91
2023-01-29T04:53:59.584Z,97.91
2023-01-29T04:54:32.252Z,98.01
2023-01-29T04:55:04.930Z,98.16
2023-01-29T04:55:37.597Z,98.22
2023-01-29T04:56:10.271Z,98.32
2023-01-29T04:56:42.940Z,98.43
2023-01-29T04:57:15.630Z,98.43
2023-01-29T04:57:48.306Z,98.54
2023-01-29T04:58:20.977Z,98.54
2023-01-29T04:58:53.642Z,98.64
2023-01-29T04:59:26.308Z,98.68
2023-01-29T04:59:58.996Z,98.68
2023-01-29T05:00:31.652Z,98.68
2023-01-29T05:01:04.312Z,98.68
2023-01-29T05:01:37.030Z,98.74
2023-01-29T05:02:09.696Z,98.89
2023-01-29T05:02:42.436Z,99.00
2023-01-29T05:03:15.080Z,99.00
2023-01-29T05:03:47.828Z,99.10
2023-01-29T05:04:20.473Z,99.10
2023-01-29T05:04:53.164Z,99.10
2023-01-29T05:05:25.826Z,99.21
2023-01-29T05:05:58.497Z,99.21
2023-01-29T05:06:31.167Z,99.21
2023-01-29T05:07:03.873Z,99.21
2023-01-29T05:07:36.525Z,99.31
2023-01-29T05:08:09.206Z,99.31
2023-01-29T05:08:41.866Z,99.41
2023-01-29T05:09:14.539Z,99.41
2023-01-29T05:09:47.204Z,99.41
2023-01-29T05:10:20.205Z,99.41
2023-01-29T05:10:46.414Z,99.41
2023-01-29T05:11:19.093Z,99.52
2023-01-29T05:11:51.774Z,99.52
2023-01-29T05:12:24.444Z,99.52
2023-01-29T05:12:57.106Z,99.52
2023-01-29T05:13:29.789Z,99.63
2023-01-29T05:14:02.438Z,99.52
2023-01-29T05:14:35.109Z,99.63
2023-01-29T05:15:07.781Z,99.63
2023-01-29T05:15:40.453Z,99.63
2023-01-29T05:16:13.227Z,99.63
2023-01-29T05:16:45.944Z,99.63
2023-01-29T05:17:18.621Z,99.63
2023-01-29T05:17:51.285Z,99.63
2023-01-29T05:18:23.996Z,99.63
2023-01-29T05:18:56.665Z,99.73
2023-01-29T05:19:29.363Z,99.73
2023-01-29T05:20:02.039Z,99.73
2023-01-29T05:20:34.711Z,99.63
2023-01-29T05:21:07.396Z,99.63
2023-01-29T05:21:41.162Z,99.73
2023-01-29T05:22:07.428Z,99.73
2023-01-29T05:22:40.086Z,99.73
2023-01-29T05:23:12.756Z,99.73
2023-01-29T05:23:45.418Z,99.63
2023-01-29T05:24:18.101Z,99.63
2023-01-29T05:24:50.800Z,99.63
2023-01-29T05:25:23.462Z,99.63
2023-01-29T05:25:56.126Z,99.63
2023-01-29T05:26:28.798Z,99.73
2023-01-29T05:27:01.487Z,99.73
2023-01-29T05:27:34.151Z,99.63
2023-01-29T05:28:06.823Z,99.63
2023-01-29T05:28:39.515Z,99.73
2023-01-29T05:29:12.205Z,99.63
2023-01-29T05:29:44.857Z,99.63
2023-01-29T05:30:17.919Z,99.63
2023-01-29T05:30:44.317Z,99.63
2023-01-29T05:31:17.156Z,99.63
2023-01-29T05:31:49.882Z,99.63
2023-01-29T05:32:22.558Z,99.63
2023-01-29T05:32:55.241Z,99.63
2023-01-29T05:33:27.917Z,99.63
2023-01-29T05:34:00.586Z,99.63
2023-01-29T05:34:33.271Z,99.63
2023-01-29T05:35:05.939Z,99.63
2023-01-29T05:35:38.610Z,99.63
2023-01-29T05:36:11.279Z,99.63
2023-01-29T05:36:43.966Z,99.63
2023-01-29T05:37:16.639Z,99.63
2023-01-29T05:37:49.310Z,99.63
2023-01-29T05:38:21.987Z,99.52
2023-01-29T05:38:54.652Z,99.41
2023-01-29T05:39:27.320Z,99.41
2023-01-29T05:39:59.982Z,99.41
2023-01-29T05:40:32.651Z,99.41
2023-01-29T05:41:05.332Z,99.41
2023-01-29T05:41:37.995Z,99.41
2023-01-29T05:42:10.674Z,99.41
2023-01-29T05:42:43.345Z,99.41
2023-01-29T05:43:14.441Z,99.41
2023-01-29T05:43:47.105Z,99.41
2023-01-29T05:44:19.799Z,99.41
2023-01-29T05:44:52.534Z,99.31
2023-01-29T05:45:25.208Z,99.31
2023-01-29T05:45:57.874Z,99.41
2023-01-29T05:46:30.645Z,99.31
2023-01-29T05:47:03.329Z,99.41
2023-01-29T05:47:36.009Z,99.41
2023-01-29T05:48:08.674Z,99.41
2023-01-29T05:48:41.389Z,99.41
2023-01-29T05:49:14.071Z,99.52
2023-01-29T05:49:46.740Z,99.52
2023-01-29T05:50:19.512Z,99.52
2023-01-29T05:50:52.185Z,99.52
2023-01-29T05:51:24.852Z,99.52
2023-01-29T05:51:57.533Z,99.52
2023-01-29T05:52:30.212Z,99.52
2023-01-29T05:53:02.896Z,99.52
2023-01-29T05:53:35.560Z,99.52
2023-01-29T05:54:08.229Z,99.52
2023-01-29T05:54:40.940Z,99.52
2023-01-29T05:55:13.588Z,99.48
2023-01-29T05:55:46.253Z,99.52
2023-01-29T05:56:18.938Z,99.48
2023-01-29T05:56:51.628Z,99.52
2023-01-29T05:57:24.326Z,99.48
2023-01-29T05:57:57.022Z,99.52
2023-01-29T05:58:29.694Z,99.37
2023-01-29T05:59:02.942Z,99.37
2023-01-29T05:59:29.127Z,99.37
2023-01-29T06:00:02.804Z,99.41
2023-01-29T06:00:28.987Z,99.37
2023-01-29T06:01:01.665Z,99.37
2023-01-29T06:01:34.392Z,99.41
2023-01-29T06:02:07.133Z,99.37
2023-01-29T06:02:39.893Z,99.37
2023-01-29T06:03:12.658Z,99.37
2023-01-29T06:03:45.340Z,99.37
2023-01-29T06:04:18.027Z,99.37
2023-01-29T06:04:50.685Z,99.37
2023-01-29T06:05:23.372Z,99.27
2023-01-29T06:05:56.032Z,99.27
2023-01-29T06:06:28.719Z,99.16
2023-01-29T06:07:01.403Z,99.27
2023-01-29T06:07:34.074Z,99.27
2023-01-29T06:08:06.751Z,99.27
2023-01-29T06:08:39.414Z,99.27
2023-01-29T06:09:12.096Z,99.27
2023-01-29T06:09:44.755Z,99.27
2023-01-29T06:10:17.909Z,99.27
2023-01-29T06:10:44.278Z,99.16
2023-01-29T06:11:16.952Z,99.27
2023-01-29T06:11:49.623Z,99.27
2023-01-29T06:12:22.299Z,99.27
2023-01-29T06:12:54.968Z,99.27
2023-01-29T06:13:27.641Z,99.27
2023-01-29T06:14:00.354Z,99.27
2023-01-29T06:14:32.997Z,99.27
2023-01-29T06:15:05.663Z,99.27
2023-01-29T06:15:38.321Z,99.27
2023-01-29T06:16:11.033Z,99.27
2023-01-29T06:16:43.715Z,99.27
2023-01-29T06:17:16.400Z,99.27
2023-01-29T06:17:49.058Z,99.27
2023-01-29T06:18:21.717Z,99.27
2023-01-29T06:18:54.381Z,99.27
2023-01-29T06:19:27.185Z,99.37
2023-01-29T06:19:59.854Z,99.37
2023-01-29T06:20:32.530Z,99.37
2023-01-29T06:21:05.198Z,99.48
2023-01-29T06:21:37.863Z,99.37
2023-01-29T06:22:10.544Z,99.37
2023-01-29T06:22:43.224Z,99.48
2023-01-29T06:23:15.915Z,99.48
2023-01-29T06:23:48.594Z,99.58
2023-01-29T06:24:21.351Z,99.58
2023-01-29T06:24:54.086Z,99.48
2023-01-29T06:25:26.756Z,99.58
2023-01-29T06:25:59.427Z,99.58
2023-01-29T06:26:32.092Z,99.58
2023-01-29T06:27:04.786Z,99.58
2023-01-29T06:27:37.457Z,99.68
2023-01-29T06:28:10.121Z,99.68
2023-01-29T06:28:42.789Z,99.68
2023-01-29T06:29:15.457Z,99.68
2023-01-29T06:29:48.125Z,99.68
2023-01-29T06:30:20.785Z,99.68
2023-01-29T06:30:53.504Z,99.68
2023-01-29T06:31:38.277Z,99.68
2023-01-29T06:31:58.438Z,99.68
2023-01-29T06:32:24.766Z,99.68
2023-01-29T06:32:57.417Z,99.68
2023-01-29T06:33:30.087Z,99.79
2023-01-29T06:34:02.767Z,99.79
2023-01-29T06:34:35.439Z,99.79
2023-01-29T06:35:08.094Z,99.79
2023-01-29T06:35:40.784Z,99.79
2023-01-29T06:36:13.441Z,99.79
2023-01-29T06:36:46.121Z,99.79
2023-01-29T06:37:18.801Z,99.90
2023-01-29T06:37:51.452Z,99.90
2023-01-29T06:38:24.122Z,99.99
2023-01-29T06:38:56.797Z,99.90
2023-01-29T06:39:29.469Z,99.99
2023-01-29T06:40:02.134Z,99.99
2023-01-29T06:40:34.817Z,99.99
2023-01-29T06:41:07.479Z,99.99
2023-01-29T06:41:40.145Z,99.99
2023-01-29T06:42:12.828Z,99.99
2023-01-29T06:42:46.215Z,99.99
2023-01-29T06:43:12.399Z,99.99
2023-01-29T06:43:45.067Z,99.99
2023-01-29T06:44:17.745Z,99.99
2023-01-29T06:44:50.404Z,99.99
2023-01-29T06:45:23.129Z,99.99
2023-01-29T06:45:55.801Z,99.99
2023-01-29T06:46:28.469Z,99.99
2023-01-29T06:47:01.159Z,99.99
2023-01-29T06:47:33.837Z,99.99
2023-01-29T06:48:06.511Z,99.99
2023-01-29T06:48:39.176Z,99.99
2023-01-29T06:49:10.274Z,99.99
2023-01-29T06:49:42.937Z,99.99
2023-01-29T06:50:15.977Z,99.99
2023-01-29T06:50:42.323Z,99.99
2023-01-29T06:51:14.961Z,99.99
2023-01-29T06:51:47.652Z,99.99
2023-01-29T06:52:20.349Z,99.99
2023-01-29T06:52:52.996Z,99.99
2023-01-29T06:53:25.684Z,99.99
2023-01-29T06:53:58.348Z,99.99
2023-01-29T06:54:31.035Z,99.99
2023-01-29T06:55:03.691Z,99.99
2023-01-29T06:55:34.783Z,99.99
2023-01-29T06:56:07.467Z,99.99
2023-01-29T06:56:40.111Z,99.99
2023-01-29T06:57:12.804Z,99.99
2023-01-29T06:57:45.489Z,99.99
2023-01-29T06:58:18.146Z,99.99
2023-01-29T06:58:50.827Z,99.99